sensor_id;sensor_type;location;lat;lon;timestamp;temperature;humidity
23637;DHT22;11995;50.842;4.456;2023-04-03T00:01:13;3.80;99.90
23637;DHT22;11995;50.842;4.456;2023-04-03T00:03:41;3.90;99.90
23637;DHT22;11995;50.842;4.456;2023-04-03T00:06:10;3.90;99.90
23637;DHT22;11995;50.842;4.456;2023-04-03T00:08:40;3.90;99.90
23637;DHT22;11995;50.842;4.456;2023-04-03T00:11:08;3.80;99.90
23637;DHT22;11995;50.842;4.456;2023-04-03T00:13:37;3.70;99.90
23637;DHT22;11995;50.842;4.456;2023-04-03T00:16:06;3.70;99.90
23637;DHT22;11995;50.842;4.456;2023-04-03T00:18:33;3.70;99.90
23637;DHT22;11995;50.842;4.456;2023-04-03T00:21:01;3.60;99.90
23637;DHT22;11995;50.842;4.456;2023-04-03T00:23:29;3.60;99.90
23637;DHT22;11995;50.842;4.456;2023-04-03T00:25:56;3.70;99.90
23637;DHT22;11995;50.842;4.456;2023-04-03T00:28:24;3.70;99.90
23637;DHT22;11995;50.842;4.456;2023-04-03T00:30:52;3.70;99.90
23637;DHT22;11995;50.842;4.456;2023-04-03T00:33:20;3.80;99.90
23637;DHT22;11995;50.842;4.456;2023-04-03T00:35:49;3.90;99.90
23637;DHT22;11995;50.842;4.456;2023-04-03T00:38:17;3.90;99.90
23637;DHT22;11995;50.842;4.456;2023-04-03T00:40:47;3.80;99.90
23637;DHT22;11995;50.842;4.456;2023-04-03T00:43:19;3.80;99.90
23637;DHT22;11995;50.842;4.456;2023-04-03T00:45:53;3.70;99.90
23637;DHT22;11995;50.842;4.456;2023-04-03T00:48:26;3.70;99.90
23637;DHT22;11995;50.842;4.456;2023-04-03T00:50:53;3.70;99.90
23637;DHT22;11995;50.842;4.456;2023-04-03T00:53:29;3.70;99.90
23637;DHT22;11995;50.842;4.456;2023-04-03T00:55:53;3.70;99.90
23637;DHT22;11995;50.842;4.456;2023-04-03T00:58:26;3.70;99.90
23637;DHT22;11995;50.842;4.456;2023-04-03T01:00:55;3.70;99.90
23637;DHT22;11995;50.842;4.456;2023-04-03T01:03:24;3.70;99.90
23637;DHT22;11995;50.842;4.456;2023-04-03T01:05:52;3.70;99.90
23637;DHT22;11995;50.842;4.456;2023-04-03T01:08:19;3.70;99.90
23637;DHT22;11995;50.842;4.456;2023-04-03T01:10:47;3.70;99.90
23637;DHT22;11995;50.842;4.456;2023-04-03T01:13:26;3.70;99.90
23637;DHT22;11995;50.842;4.456;2023-04-03T01:15:54;3.70;99.90
23637;DHT22;11995;50.842;4.456;2023-04-03T01:18:24;3.70;99.90
23637;DHT22;11995;50.842;4.456;2023-04-03T01:26:16;3.60;99.90
23637;DHT22;11995;50.842;4.456;2023-04-03T01:28:43;3.70;99.90
23637;DHT22;11995;50.842;4.456;2023-04-03T01:34:04;3.70;99.90
23637;DHT22;11995;50.842;4.456;2023-04-03T01:36:32;3.70;99.90
23637;DHT22;11995;50.842;4.456;2023-04-03T01:39:00;3.80;99.90
23637;DHT22;11995;50.842;4.456;2023-04-03T01:41:28;3.80;99.90
23637;DHT22;11995;50.842;4.456;2023-04-03T01:43:57;3.80;99.90
23637;DHT22;11995;50.842;4.456;2023-04-03T01:46:25;3.60;99.90
23637;DHT22;11995;50.842;4.456;2023-04-03T01:48:53;3.60;99.90
23637;DHT22;11995;50.842;4.456;2023-04-03T01:51:21;3.60;99.90
23637;DHT22;11995;50.842;4.456;2023-04-03T01:53:49;3.60;99.90
23637;DHT22;11995;50.842;4.456;2023-04-03T01:56:18;3.70;99.90
23637;DHT22;11995;50.842;4.456;2023-04-03T01:58:45;3.60;99.90
23637;DHT22;11995;50.842;4.456;2023-04-03T02:01:12;3.60;99.90
23637;DHT22;11995;50.842;4.456;2023-04-03T02:03:40;3.60;99.90
23637;DHT22;11995;50.842;4.456;2023-04-03T02:06:08;3.50;99.90
23637;DHT22;11995;50.842;4.456;2023-04-03T02:08:35;3.60;99.90
23637;DHT22;11995;50.842;4.456;2023-04-03T02:11:03;3.60;99.90
23637;DHT22;11995;50.842;4.456;2023-04-03T02:13:30;3.60;99.90
23637;DHT22;11995;50.842;4.456;2023-04-03T02:15:58;3.50;99.90
23637;DHT22;11995;50.842;4.456;2023-04-03T02:18:25;3.40;99.90
23637;DHT22;11995;50.842;4.456;2023-04-03T02:20:53;3.50;99.90
23637;DHT22;11995;50.842;4.456;2023-04-03T02:23:21;3.50;99.90
23637;DHT22;11995;50.842;4.456;2023-04-03T02:25:49;3.60;99.90
23637;DHT22;11995;50.842;4.456;2023-04-03T02:28:37;3.70;99.90
23637;DHT22;11995;50.842;4.456;2023-04-03T02:31:05;3.70;99.90
23637;DHT22;11995;50.842;4.456;2023-04-03T02:33:36;3.80;99.90
23637;DHT22;11995;50.842;4.456;2023-04-03T02:36:05;3.80;99.90
23637;DHT22;11995;50.842;4.456;2023-04-03T02:38:33;3.70;99.90
23637;DHT22;11995;50.842;4.456;2023-04-03T02:41:07;3.60;99.90
23637;DHT22;11995;50.842;4.456;2023-04-03T02:43:34;3.50;99.90
23637;DHT22;11995;50.842;4.456;2023-04-03T02:46:02;3.50;99.90
23637;DHT22;11995;50.842;4.456;2023-04-03T02:48:30;3.30;99.90
23637;DHT22;11995;50.842;4.456;2023-04-03T02:50:58;3.30;99.90
23637;DHT22;11995;50.842;4.456;2023-04-03T02:53:25;3.20;99.90
23637;DHT22;11995;50.842;4.456;2023-04-03T02:55:53;3.20;99.90
23637;DHT22;11995;50.842;4.456;2023-04-03T02:58:21;3.20;99.90
23637;DHT22;11995;50.842;4.456;2023-04-03T03:00:48;3.10;99.90
23637;DHT22;11995;50.842;4.456;2023-04-03T03:03:17;3.10;99.90
23637;DHT22;11995;50.842;4.456;2023-04-03T03:05:44;3.00;99.90
23637;DHT22;11995;50.842;4.456;2023-04-03T03:08:11;3.00;99.90
23637;DHT22;11995;50.842;4.456;2023-04-03T03:10:39;3.00;99.90
23637;DHT22;11995;50.842;4.456;2023-04-03T03:13:06;2.90;99.90
23637;DHT22;11995;50.842;4.456;2023-04-03T03:15:34;2.90;99.90
23637;DHT22;11995;50.842;4.456;2023-04-03T03:18:01;2.80;99.90
23637;DHT22;11995;50.842;4.456;2023-04-03T03:20:29;2.80;99.90
23637;DHT22;11995;50.842;4.456;2023-04-03T03:22:56;2.80;99.90
23637;DHT22;11995;50.842;4.456;2023-04-03T03:25:24;2.70;99.90
23637;DHT22;11995;50.842;4.456;2023-04-03T03:27:51;2.70;99.90
23637;DHT22;11995;50.842;4.456;2023-04-03T03:30:18;2.70;99.90
23637;DHT22;11995;50.842;4.456;2023-04-03T03:32:46;2.60;99.90
23637;DHT22;11995;50.842;4.456;2023-04-03T03:35:14;2.60;99.90
23637;DHT22;11995;50.842;4.456;2023-04-03T03:37:41;2.50;99.90
23637;DHT22;11995;50.842;4.456;2023-04-03T03:40:10;2.50;99.90
23637;DHT22;11995;50.842;4.456;2023-04-03T03:42:39;2.50;99.90
23637;DHT22;11995;50.842;4.456;2023-04-03T03:45:08;2.50;99.90
23637;DHT22;11995;50.842;4.456;2023-04-03T03:47:36;2.50;99.90
23637;DHT22;11995;50.842;4.456;2023-04-03T03:50:03;2.40;99.90
23637;DHT22;11995;50.842;4.456;2023-04-03T03:52:31;2.40;99.90
23637;DHT22;11995;50.842;4.456;2023-04-03T03:54:59;2.40;99.90
23637;DHT22;11995;50.842;4.456;2023-04-03T03:57:26;2.30;99.90
23637;DHT22;11995;50.842;4.456;2023-04-03T03:59:55;2.30;99.90
23637;DHT22;11995;50.842;4.456;2023-04-03T04:02:22;2.30;99.90
23637;DHT22;11995;50.842;4.456;2023-04-03T04:04:50;2.30;99.90
23637;DHT22;11995;50.842;4.456;2023-04-03T04:07:17;2.30;99.90
23637;DHT22;11995;50.842;4.456;2023-04-03T04:09:45;2.20;99.90
23637;DHT22;11995;50.842;4.456;2023-04-03T04:12:12;2.30;99.90
23637;DHT22;11995;50.842;4.456;2023-04-03T04:14:40;2.20;99.90
23637;DHT22;11995;50.842;4.456;2023-04-03T04:17:07;2.10;99.90
23637;DHT22;11995;50.842;4.456;2023-04-03T04:19:35;2.10;99.90
23637;DHT22;11995;50.842;4.456;2023-04-03T04:22:03;2.20;99.90
23637;DHT22;11995;50.842;4.456;2023-04-03T04:24:30;2.20;99.90
23637;DHT22;11995;50.842;4.456;2023-04-03T04:26:58;2.10;99.90
23637;DHT22;11995;50.842;4.456;2023-04-03T04:29:25;2.10;99.90
23637;DHT22;11995;50.842;4.456;2023-04-03T04:31:53;2.10;99.90
23637;DHT22;11995;50.842;4.456;2023-04-03T04:34:20;2.10;99.90
23637;DHT22;11995;50.842;4.456;2023-04-03T04:36:48;2.10;99.90
23637;DHT22;11995;50.842;4.456;2023-04-03T04:39:16;2.10;99.90
23637;DHT22;11995;50.842;4.456;2023-04-03T04:41:43;2.10;99.90
23637;DHT22;11995;50.842;4.456;2023-04-03T04:44:11;2.10;99.90
23637;DHT22;11995;50.842;4.456;2023-04-03T04:46:38;2.20;99.90
23637;DHT22;11995;50.842;4.456;2023-04-03T04:49:06;2.20;99.90
23637;DHT22;11995;50.842;4.456;2023-04-03T04:51:33;2.20;99.90
23637;DHT22;11995;50.842;4.456;2023-04-03T04:54:01;2.20;99.90
23637;DHT22;11995;50.842;4.456;2023-04-03T04:56:28;2.20;99.90
23637;DHT22;11995;50.842;4.456;2023-04-03T04:58:56;2.20;99.90
23637;DHT22;11995;50.842;4.456;2023-04-03T05:01:23;2.20;99.90
23637;DHT22;11995;50.842;4.456;2023-04-03T05:03:51;2.20;99.90
23637;DHT22;11995;50.842;4.456;2023-04-03T05:06:18;2.30;99.90
23637;DHT22;11995;50.842;4.456;2023-04-03T05:08:46;2.30;99.90
23637;DHT22;11995;50.842;4.456;2023-04-03T05:11:14;2.30;99.90
23637;DHT22;11995;50.842;4.456;2023-04-03T05:13:42;2.40;99.90
23637;DHT22;11995;50.842;4.456;2023-04-03T05:16:09;2.50;99.90
23637;DHT22;11995;50.842;4.456;2023-04-03T05:18:38;2.40;99.90
23637;DHT22;11995;50.842;4.456;2023-04-03T05:21:06;2.40;99.90
23637;DHT22;11995;50.842;4.456;2023-04-03T05:23:33;2.30;99.90
23637;DHT22;11995;50.842;4.456;2023-04-03T05:26:01;2.30;99.90
23637;DHT22;11995;50.842;4.456;2023-04-03T05:28:28;2.40;99.90
23637;DHT22;11995;50.842;4.456;2023-04-03T05:30:57;2.40;99.90
23637;DHT22;11995;50.842;4.456;2023-04-03T05:33:26;2.40;99.90
23637;DHT22;11995;50.842;4.456;2023-04-03T05:35:54;2.40;99.90
23637;DHT22;11995;50.842;4.456;2023-04-03T05:38:22;2.40;99.90
23637;DHT22;11995;50.842;4.456;2023-04-03T05:40:49;2.40;99.90
23637;DHT22;11995;50.842;4.456;2023-04-03T05:43:17;2.40;99.90
23637;DHT22;11995;50.842;4.456;2023-04-03T05:45:44;2.40;99.90
23637;DHT22;11995;50.842;4.456;2023-04-03T05:48:12;2.40;99.90
23637;DHT22;11995;50.842;4.456;2023-04-03T05:50:39;2.40;99.90
23637;DHT22;11995;50.842;4.456;2023-04-03T05:53:15;2.40;99.90
23637;DHT22;11995;50.842;4.456;2023-04-03T05:55:42;2.50;99.90
23637;DHT22;11995;50.842;4.456;2023-04-03T05:58:09;2.60;99.90
23637;DHT22;11995;50.842;4.456;2023-04-03T06:00:37;2.60;99.90
23637;DHT22;11995;50.842;4.456;2023-04-03T06:03:04;2.60;99.90
23637;DHT22;11995;50.842;4.456;2023-04-03T06:05:34;2.70;99.90
23637;DHT22;11995;50.842;4.456;2023-04-03T06:08:02;2.90;99.90
23637;DHT22;11995;50.842;4.456;2023-04-03T06:10:30;3.00;99.90
23637;DHT22;11995;50.842;4.456;2023-04-03T06:12:57;3.10;99.90
23637;DHT22;11995;50.842;4.456;2023-04-03T06:15:25;3.30;99.90
23637;DHT22;11995;50.842;4.456;2023-04-03T06:17:52;3.60;99.90
23637;DHT22;11995;50.842;4.456;2023-04-03T06:20:20;3.80;99.90
23637;DHT22;11995;50.842;4.456;2023-04-03T06:22:48;4.00;99.90
23637;DHT22;11995;50.842;4.456;2023-04-03T06:25:17;4.20;99.90
23637;DHT22;11995;50.842;4.456;2023-04-03T06:27:45;4.30;99.90
23637;DHT22;11995;50.842;4.456;2023-04-03T06:30:14;4.50;99.90
23637;DHT22;11995;50.842;4.456;2023-04-03T06:32:41;4.70;99.90
23637;DHT22;11995;50.842;4.456;2023-04-03T06:35:09;4.90;99.90
23637;DHT22;11995;50.842;4.456;2023-04-03T06:37:37;5.00;99.90
23637;DHT22;11995;50.842;4.456;2023-04-03T06:40:09;5.20;99.90
23637;DHT22;11995;50.842;4.456;2023-04-03T06:42:39;5.40;99.90
23637;DHT22;11995;50.842;4.456;2023-04-03T06:45:08;5.60;99.90
23637;DHT22;11995;50.842;4.456;2023-04-03T06:47:37;5.60;99.90
23637;DHT22;11995;50.842;4.456;2023-04-03T06:50:06;5.70;99.90
23637;DHT22;11995;50.842;4.456;2023-04-03T06:52:35;5.80;99.90
23637;DHT22;11995;50.842;4.456;2023-04-03T06:55:05;5.70;99.90
23637;DHT22;11995;50.842;4.456;2023-04-03T06:57:33;5.70;99.90
23637;DHT22;11995;50.842;4.456;2023-04-03T07:00:01;5.80;99.90
23637;DHT22;11995;50.842;4.456;2023-04-03T07:02:30;5.30;99.90
23637;DHT22;11995;50.842;4.456;2023-04-03T07:04:57;5.50;99.90
23637;DHT22;11995;50.842;4.456;2023-04-03T07:07:25;5.60;99.90
23637;DHT22;11995;50.842;4.456;2023-04-03T07:09:52;5.80;99.90
23637;DHT22;11995;50.842;4.456;2023-04-03T07:12:21;6.00;99.90
23637;DHT22;11995;50.842;4.456;2023-04-03T07:14:49;6.00;99.90
23637;DHT22;11995;50.842;4.456;2023-04-03T07:17:16;6.10;99.90
23637;DHT22;11995;50.842;4.456;2023-04-03T07:19:44;6.20;99.90
23637;DHT22;11995;50.842;4.456;2023-04-03T07:22:11;6.50;99.90
23637;DHT22;11995;50.842;4.456;2023-04-03T07:24:39;6.40;99.90
23637;DHT22;11995;50.842;4.456;2023-04-03T07:27:07;6.30;99.90
23637;DHT22;11995;50.842;4.456;2023-04-03T07:29:35;6.60;99.90
23637;DHT22;11995;50.842;4.456;2023-04-03T07:32:03;6.90;99.90
23637;DHT22;11995;50.842;4.456;2023-04-03T07:34:32;7.00;99.90
23637;DHT22;11995;50.842;4.456;2023-04-03T07:37:00;6.90;99.90
23637;DHT22;11995;50.842;4.456;2023-04-03T07:39:29;7.00;99.90
23637;DHT22;11995;50.842;4.456;2023-04-03T07:41:56;7.40;99.90
23637;DHT22;11995;50.842;4.456;2023-04-03T07:44:24;7.40;99.90
23637;DHT22;11995;50.842;4.456;2023-04-03T07:46:52;7.50;99.90
23637;DHT22;11995;50.842;4.456;2023-04-03T07:49:22;7.50;99.90
23637;DHT22;11995;50.842;4.456;2023-04-03T07:51:52;7.40;99.90
23637;DHT22;11995;50.842;4.456;2023-04-03T07:54:21;7.60;99.90
23637;DHT22;11995;50.842;4.456;2023-04-03T07:56:49;7.20;99.90
23637;DHT22;11995;50.842;4.456;2023-04-03T07:59:16;7.40;99.90
23637;DHT22;11995;50.842;4.456;2023-04-03T08:01:44;7.50;99.90
23637;DHT22;11995;50.842;4.456;2023-04-03T08:04:12;7.60;99.90
23637;DHT22;11995;50.842;4.456;2023-04-03T08:06:40;7.50;99.90
23637;DHT22;11995;50.842;4.456;2023-04-03T08:09:07;7.50;99.90
23637;DHT22;11995;50.842;4.456;2023-04-03T08:11:35;7.30;99.90
23637;DHT22;11995;50.842;4.456;2023-04-03T08:14:03;7.30;99.90
23637;DHT22;11995;50.842;4.456;2023-04-03T08:16:30;7.30;99.90
23637;DHT22;11995;50.842;4.456;2023-04-03T08:18:58;7.50;99.90
23637;DHT22;11995;50.842;4.456;2023-04-03T08:21:25;7.60;99.90
23637;DHT22;11995;50.842;4.456;2023-04-03T08:23:53;7.80;99.90
23637;DHT22;11995;50.842;4.456;2023-04-03T08:26:21;7.40;99.90
23637;DHT22;11995;50.842;4.456;2023-04-03T08:28:49;7.30;99.90
23637;DHT22;11995;50.842;4.456;2023-04-03T08:31:18;7.40;99.90
23637;DHT22;11995;50.842;4.456;2023-04-03T08:33:47;7.40;99.90
23637;DHT22;11995;50.842;4.456;2023-04-03T08:36:21;7.40;99.90
23637;DHT22;11995;50.842;4.456;2023-04-03T08:38:50;7.10;99.90
23637;DHT22;11995;50.842;4.456;2023-04-03T08:50:02;7.40;99.90
23637;DHT22;11995;50.842;4.456;2023-04-03T08:52:39;7.30;99.90
23637;DHT22;11995;50.842;4.456;2023-04-03T08:55:22;7.20;99.90
23637;DHT22;11995;50.842;4.456;2023-04-03T08:58:00;7.40;99.90
23637;DHT22;11995;50.842;4.456;2023-04-03T09:01:04;7.40;99.90
23637;DHT22;11995;50.842;4.456;2023-04-03T09:03:11;7.60;99.90
23637;DHT22;11995;50.842;4.456;2023-04-03T09:05:43;7.70;99.90
23637;DHT22;11995;50.842;4.456;2023-04-03T09:08:34;7.70;99.90
23637;DHT22;11995;50.842;4.456;2023-04-03T09:13:57;7.90;99.90
23637;DHT22;11995;50.842;4.456;2023-04-03T09:16:47;7.70;99.90
23637;DHT22;11995;50.842;4.456;2023-04-03T09:19:26;7.60;99.90
23637;DHT22;11995;50.842;4.456;2023-04-03T09:21:51;7.90;99.90
23637;DHT22;11995;50.842;4.456;2023-04-03T09:24:21;7.80;99.90
23637;DHT22;11995;50.842;4.456;2023-04-03T09:27:04;7.90;99.90
23637;DHT22;11995;50.842;4.456;2023-04-03T09:29:34;8.00;99.90
23637;DHT22;11995;50.842;4.456;2023-04-03T09:32:11;7.90;99.90
23637;DHT22;11995;50.842;4.456;2023-04-03T09:34:37;7.80;99.90
23637;DHT22;11995;50.842;4.456;2023-04-03T09:37:06;7.60;99.90
23637;DHT22;11995;50.842;4.456;2023-04-03T09:39:52;7.60;99.90
23637;DHT22;11995;50.842;4.456;2023-04-03T09:42:22;7.70;99.90
23637;DHT22;11995;50.842;4.456;2023-04-03T09:45:04;7.80;99.90
23637;DHT22;11995;50.842;4.456;2023-04-03T09:47:34;7.60;99.90
23637;DHT22;11995;50.842;4.456;2023-04-03T09:52:46;7.70;99.90
23637;DHT22;11995;50.842;4.456;2023-04-03T09:55:17;7.90;99.90
23637;DHT22;11995;50.842;4.456;2023-04-03T09:57:48;8.00;99.90
23637;DHT22;11995;50.842;4.456;2023-04-03T10:00:26;8.00;99.90
23637;DHT22;11995;50.842;4.456;2023-04-03T10:02:55;8.10;99.90
23637;DHT22;11995;50.842;4.456;2023-04-03T10:05:37;7.80;99.90
23637;DHT22;11995;50.842;4.456;2023-04-03T10:10:48;7.90;99.90
23637;DHT22;11995;50.842;4.456;2023-04-03T10:13:14;8.20;99.90
23637;DHT22;11995;50.842;4.456;2023-04-03T10:15:46;8.10;99.90
23637;DHT22;11995;50.842;4.456;2023-04-03T10:20:48;7.90;99.90
23637;DHT22;11995;50.842;4.456;2023-04-03T10:23:37;8.10;99.90
23637;DHT22;11995;50.842;4.456;2023-04-03T10:26:29;8.20;99.90
23637;DHT22;11995;50.842;4.456;2023-04-03T10:29:09;8.10;99.90
23637;DHT22;11995;50.842;4.456;2023-04-03T10:31:44;8.20;99.90
23637;DHT22;11995;50.842;4.456;2023-04-03T10:36:53;8.20;99.90
23637;DHT22;11995;50.842;4.456;2023-04-03T10:53:42;8.40;99.90
23637;DHT22;11995;50.842;4.456;2023-04-03T10:58:54;8.20;99.90
23637;DHT22;11995;50.842;4.456;2023-04-03T11:01:16;8.20;99.90
23637;DHT22;11995;50.842;4.456;2023-04-03T11:03:51;8.30;99.90
23637;DHT22;11995;50.842;4.456;2023-04-03T11:06:16;8.40;99.90
23637;DHT22;11995;50.842;4.456;2023-04-03T11:11:19;8.40;99.90
23637;DHT22;11995;50.842;4.456;2023-04-03T11:13:55;8.20;99.90
23637;DHT22;11995;50.842;4.456;2023-04-03T11:16:26;8.30;99.90
23637;DHT22;11995;50.842;4.456;2023-04-03T11:18:59;8.50;99.90
23637;DHT22;11995;50.842;4.456;2023-04-03T11:21:42;8.70;99.90
23637;DHT22;11995;50.842;4.456;2023-04-03T11:24:15;8.60;99.90
23637;DHT22;11995;50.842;4.456;2023-04-03T11:26:42;8.40;99.90
23637;DHT22;11995;50.842;4.456;2023-04-03T11:29:13;8.50;99.90
23637;DHT22;11995;50.842;4.456;2023-04-03T11:32:04;8.30;99.90
23637;DHT22;11995;50.842;4.456;2023-04-03T11:34:40;8.40;99.90
23637;DHT22;11995;50.842;4.456;2023-04-03T11:37:25;8.50;99.90
23637;DHT22;11995;50.842;4.456;2023-04-03T11:40:08;8.70;99.90
23637;DHT22;11995;50.842;4.456;2023-04-03T11:42:47;8.70;99.90
23637;DHT22;11995;50.842;4.456;2023-04-03T11:45:33;8.60;99.90
23637;DHT22;11995;50.842;4.456;2023-04-03T11:48:09;8.60;99.90
23637;DHT22;11995;50.842;4.456;2023-04-03T11:58:26;8.90;99.90
23637;DHT22;11995;50.842;4.456;2023-04-03T12:00:53;9.00;99.90
23637;DHT22;11995;50.842;4.456;2023-04-03T12:11:14;9.00;99.90
23637;DHT22;11995;50.842;4.456;2023-04-03T12:24:24;9.00;99.90
23637;DHT22;11995;50.842;4.456;2023-04-03T12:29:38;8.80;99.90
23637;DHT22;11995;50.842;4.456;2023-04-03T12:32:24;8.90;99.40
23637;DHT22;11995;50.842;4.456;2023-04-03T12:46:14;8.80;98.60
23637;DHT22;11995;50.842;4.456;2023-04-03T12:48:48;8.80;97.40
23637;DHT22;11995;50.842;4.456;2023-04-03T12:51:19;9.00;97.70
23637;DHT22;11995;50.842;4.456;2023-04-03T12:53:50;9.10;95.60
23637;DHT22;11995;50.842;4.456;2023-04-03T12:56:24;9.20;96.50
23637;DHT22;11995;50.842;4.456;2023-04-03T12:58:55;9.20;96.60
23637;DHT22;11995;50.842;4.456;2023-04-03T13:01:25;9.20;95.60
23637;DHT22;11995;50.842;4.456;2023-04-03T13:03:55;9.10;96.10
23637;DHT22;11995;50.842;4.456;2023-04-03T13:06:27;9.00;95.60
23637;DHT22;11995;50.842;4.456;2023-04-03T13:08:56;9.20;95.50
23637;DHT22;11995;50.842;4.456;2023-04-03T13:11:27;9.40;95.50
23637;DHT22;11995;50.842;4.456;2023-04-03T13:13:56;9.20;94.00
23637;DHT22;11995;50.842;4.456;2023-04-03T13:16:26;9.20;94.60
23637;DHT22;11995;50.842;4.456;2023-04-03T13:18:55;9.50;94.70
23637;DHT22;11995;50.842;4.456;2023-04-03T13:21:30;9.50;93.00
23637;DHT22;11995;50.842;4.456;2023-04-03T13:24:01;9.60;94.20
23637;DHT22;11995;50.842;4.456;2023-04-03T13:26:31;9.30;93.20
23637;DHT22;11995;50.842;4.456;2023-04-03T13:29:07;9.30;93.50
23637;DHT22;11995;50.842;4.456;2023-04-03T13:31:36;9.20;91.80
23637;DHT22;11995;50.842;4.456;2023-04-03T13:34:21;9.00;90.70
23637;DHT22;11995;50.842;4.456;2023-04-03T13:36:40;9.00;92.30
23637;DHT22;11995;50.842;4.456;2023-04-03T13:41:48;9.20;91.90
23637;DHT22;11995;50.842;4.456;2023-04-03T13:46:54;9.40;92.60
23637;DHT22;11995;50.842;4.456;2023-04-03T13:49:44;9.30;92.60
23637;DHT22;11995;50.842;4.456;2023-04-03T13:52:40;9.20;92.70
23637;DHT22;11995;50.842;4.456;2023-04-03T13:55:11;9.20;91.80
23637;DHT22;11995;50.842;4.456;2023-04-03T13:57:32;9.20;91.90
23637;DHT22;11995;50.842;4.456;2023-04-03T13:59:59;9.20;92.80
23637;DHT22;11995;50.842;4.456;2023-04-03T14:02:38;9.30;93.20
23637;DHT22;11995;50.842;4.456;2023-04-03T14:05:02;9.40;92.70
23637;DHT22;11995;50.842;4.456;2023-04-03T14:07:30;9.40;93.60
23637;DHT22;11995;50.842;4.456;2023-04-03T14:09:59;9.40;93.40
23637;DHT22;11995;50.842;4.456;2023-04-03T14:15:04;9.40;93.50
23637;DHT22;11995;50.842;4.456;2023-04-03T14:17:27;9.50;92.50
23637;DHT22;11995;50.842;4.456;2023-04-03T14:19:56;9.60;91.90
23637;DHT22;11995;50.842;4.456;2023-04-03T14:22:29;9.60;92.60
23637;DHT22;11995;50.842;4.456;2023-04-03T14:24:52;9.60;92.40
23637;DHT22;11995;50.842;4.456;2023-04-03T14:27:23;9.70;92.40
23637;DHT22;11995;50.842;4.456;2023-04-03T14:29:52;9.60;92.80
23637;DHT22;11995;50.842;4.456;2023-04-03T14:32:22;9.60;92.00
23637;DHT22;11995;50.842;4.456;2023-04-03T14:34:49;9.70;92.20
23637;DHT22;11995;50.842;4.456;2023-04-03T14:37:21;9.70;91.30
23637;DHT22;11995;50.842;4.456;2023-04-03T14:39:50;9.60;92.30
23637;DHT22;11995;50.842;4.456;2023-04-03T14:42:18;9.70;92.50
23637;DHT22;11995;50.842;4.456;2023-04-03T14:44:46;9.60;92.10
23637;DHT22;11995;50.842;4.456;2023-04-03T14:47:16;9.50;91.70
23637;DHT22;11995;50.842;4.456;2023-04-03T14:49:44;9.40;92.40
23637;DHT22;11995;50.842;4.456;2023-04-03T14:52:22;9.50;92.20
23637;DHT22;11995;50.842;4.456;2023-04-03T14:54:49;9.70;91.70
23637;DHT22;11995;50.842;4.456;2023-04-03T14:57:18;9.80;91.40
23637;DHT22;11995;50.842;4.456;2023-04-03T14:59:46;9.80;92.20
23637;DHT22;11995;50.842;4.456;2023-04-03T15:02:35;9.80;91.10
23637;DHT22;11995;50.842;4.456;2023-04-03T15:05:06;9.80;91.50
23637;DHT22;11995;50.842;4.456;2023-04-03T15:07:39;9.90;91.10
23637;DHT22;11995;50.842;4.456;2023-04-03T15:10:25;9.60;89.00
23637;DHT22;11995;50.842;4.456;2023-04-03T15:12:53;9.60;87.60
23637;DHT22;11995;50.842;4.456;2023-04-03T15:15:23;9.60;85.70
23637;DHT22;11995;50.842;4.456;2023-04-03T15:17:53;9.60;87.30
23637;DHT22;11995;50.842;4.456;2023-04-03T15:20:25;9.70;89.20
23637;DHT22;11995;50.842;4.456;2023-04-03T15:22:53;9.50;89.00
23637;DHT22;11995;50.842;4.456;2023-04-03T15:25:23;9.60;90.20
23637;DHT22;11995;50.842;4.456;2023-04-03T15:27:52;9.60;89.20
23637;DHT22;11995;50.842;4.456;2023-04-03T15:30:20;9.50;89.70
23637;DHT22;11995;50.842;4.456;2023-04-03T15:32:48;9.50;88.90
23637;DHT22;11995;50.842;4.456;2023-04-03T15:35:16;9.50;90.70
23637;DHT22;11995;50.842;4.456;2023-04-03T15:37:44;9.50;91.20
23637;DHT22;11995;50.842;4.456;2023-04-03T15:40:11;9.50;90.00
23637;DHT22;11995;50.842;4.456;2023-04-03T15:42:39;9.50;90.60
23637;DHT22;11995;50.842;4.456;2023-04-03T15:45:08;9.60;90.20
23637;DHT22;11995;50.842;4.456;2023-04-03T15:47:36;9.60;90.40
23637;DHT22;11995;50.842;4.456;2023-04-03T15:50:04;9.60;90.90
23637;DHT22;11995;50.842;4.456;2023-04-03T15:52:36;9.60;91.30
23637;DHT22;11995;50.842;4.456;2023-04-03T15:55:10;9.50;91.20
23637;DHT22;11995;50.842;4.456;2023-04-03T15:57:37;9.40;92.40
23637;DHT22;11995;50.842;4.456;2023-04-03T16:00:06;9.60;92.50
23637;DHT22;11995;50.842;4.456;2023-04-03T16:02:34;9.40;92.70
23637;DHT22;11995;50.842;4.456;2023-04-03T16:05:04;9.60;93.10
23637;DHT22;11995;50.842;4.456;2023-04-03T16:07:31;9.70;92.00
23637;DHT22;11995;50.842;4.456;2023-04-03T16:09:58;9.70;92.20
23637;DHT22;11995;50.842;4.456;2023-04-03T16:12:27;9.70;92.10
23637;DHT22;11995;50.842;4.456;2023-04-03T16:14:55;9.70;92.30
23637;DHT22;11995;50.842;4.456;2023-04-03T16:17:22;9.50;93.10
23637;DHT22;11995;50.842;4.456;2023-04-03T16:19:50;9.60;94.20
23637;DHT22;11995;50.842;4.456;2023-04-03T16:22:18;9.50;94.10
23637;DHT22;11995;50.842;4.456;2023-04-03T16:24:45;9.50;93.90
23637;DHT22;11995;50.842;4.456;2023-04-03T16:27:13;9.50;94.10
23637;DHT22;11995;50.842;4.456;2023-04-03T16:29:41;9.50;93.70
23637;DHT22;11995;50.842;4.456;2023-04-03T16:32:08;9.50;93.70
23637;DHT22;11995;50.842;4.456;2023-04-03T16:34:36;9.40;93.80
23637;DHT22;11995;50.842;4.456;2023-04-03T16:37:03;9.30;93.90
23637;DHT22;11995;50.842;4.456;2023-04-03T16:39:31;9.30;94.60
23637;DHT22;11995;50.842;4.456;2023-04-03T16:42:00;9.30;95.50
23637;DHT22;11995;50.842;4.456;2023-04-03T16:44:27;9.40;95.10
23637;DHT22;11995;50.842;4.456;2023-04-03T16:46:55;9.30;94.80
23637;DHT22;11995;50.842;4.456;2023-04-03T16:49:23;9.30;94.80
23637;DHT22;11995;50.842;4.456;2023-04-03T16:51:50;9.30;95.40
23637;DHT22;11995;50.842;4.456;2023-04-03T16:54:18;9.40;94.50
23637;DHT22;11995;50.842;4.456;2023-04-03T16:56:46;9.30;94.10
23637;DHT22;11995;50.842;4.456;2023-04-03T16:59:13;9.20;94.50
23637;DHT22;11995;50.842;4.456;2023-04-03T17:01:41;9.10;95.10
23637;DHT22;11995;50.842;4.456;2023-04-03T17:04:08;9.20;95.70
23637;DHT22;11995;50.842;4.456;2023-04-03T17:06:36;9.20;95.50
23637;DHT22;11995;50.842;4.456;2023-04-03T17:09:04;9.10;95.40
23637;DHT22;11995;50.842;4.456;2023-04-03T17:11:32;9.10;95.50
23637;DHT22;11995;50.842;4.456;2023-04-03T17:14:00;9.20;95.40
23637;DHT22;11995;50.842;4.456;2023-04-03T17:16:28;9.30;95.10
23637;DHT22;11995;50.842;4.456;2023-04-03T17:18:56;9.30;96.00
23637;DHT22;11995;50.842;4.456;2023-04-03T17:21:24;9.20;96.00
23637;DHT22;11995;50.842;4.456;2023-04-03T17:23:55;9.20;95.90
23637;DHT22;11995;50.842;4.456;2023-04-03T17:26:24;9.10;96.30
23637;DHT22;11995;50.842;4.456;2023-04-03T17:28:53;9.10;96.30
23637;DHT22;11995;50.842;4.456;2023-04-03T17:31:20;9.00;95.60
23637;DHT22;11995;50.842;4.456;2023-04-03T17:33:48;8.90;95.60
23637;DHT22;11995;50.842;4.456;2023-04-03T17:36:15;8.90;95.90
23637;DHT22;11995;50.842;4.456;2023-04-03T17:38:43;8.80;95.80